TimeEST,TemperatureF,Dew PointF,Humidity,Sea Level PressureIn,VisibilityMPH,Wind Direction,Wind SpeedMPH,Gust SpeedMPH,PrecipitationIn,Events,Conditions,WindDirDegrees,DateUTC
12:53 AM,27.0,15.1,61,30.22,10.0,WNW,8.1,-,N/A,,Clear,300,2014-02-07 05:53:00
1:53 AM,27.0,14.0,58,30.21,10.0,WNW,6.9,-,N/A,,Clear,300,2014-02-07 06:53:00
2:53 AM,26.1,10.0,51,30.21,10.0,NW,9.2,-,N/A,,Clear,310,2014-02-07 07:53:00
3:53 AM,24.1,10.9,57,30.22,10.0,NW,5.8,-,N/A,,Clear,310,2014-02-07 08:53:00
4:53 AM,23.0,9.0,55,30.23,10.0,NW,5.8,-,N/A,,Clear,310,2014-02-07 09:53:00
5:53 AM,19.0,8.1,62,30.24,10.0,WNW,4.6,-,N/A,,Clear,300,2014-02-07 10:53:00
6:53 AM,17.1,8.1,68,30.25,10.0,NW,4.6,-,N/A,,Clear,310,2014-02-07 11:53:00
7:53 AM,24.1,9.0,53,30.26,10.0,NW,4.6,-,N/A,,Clear,320,2014-02-07 12:53:00
8:53 AM,27.0,9.0,47,30.28,10.0,NW,9.2,-,N/A,,Clear,320,2014-02-07 13:53:00
9:53 AM,28.0,10.0,47,30.28,10.0,West,8.1,-,N/A,,Clear,280,2014-02-07 14:53:00
10:53 AM,30.0,12.9,49,30.27,10.0,West,8.1,-,N/A,,Clear,260,2014-02-07 15:53:00
11:53 AM,30.0,15.1,54,30.23,10.0,West,6.9,-,N/A,,Clear,270,2014-02-07 16:53:00
12:53 PM,30.0,14.0,51,30.20,10.0,West,13.8,19.6,N/A,,Clear,260,2014-02-07 17:53:00
1:53 PM,30.0,12.0,47,30.19,10.0,West,11.5,-,N/A,,Clear,280,2014-02-07 18:53:00
2:53 PM,30.9,12.0,46,30.19,10.0,West,10.4,-,N/A,,Clear,280,2014-02-07 19:53:00
3:53 PM,30.0,15.1,54,30.18,10.0,WNW,10.4,-,N/A,,Clear,290,2014-02-07 20:53:00
4:53 PM,30.0,15.1,54,30.20,10.0,WSW,6.9,-,N/A,,Clear,240,2014-02-07 21:53:00
5:53 PM,28.9,16.0,58,30.20,10.0,WSW,5.8,-,N/A,,Clear,240,2014-02-07 22:53:00
6:53 PM,27.0,16.0,63,30.22,10.0,SSW,6.9,-,N/A,,Clear,210,2014-02-07 23:53:00
7:53 PM,28.9,17.1,61,30.23,10.0,WSW,8.1,-,N/A,,Clear,240,2014-02-08 00:53:00
8:53 PM,28.9,17.1,61,30.25,10.0,WSW,5.8,-,N/A,,Clear,250,2014-02-08 01:53:00
9:53 PM,30.9,14.0,50,30.24,10.0,West,9.2,-,N/A,,Clear,260,2014-02-08 02:53:00
10:53 PM,30.9,19.0,61,30.23,10.0,WSW,5.8,-,N/A,,Clear,240,2014-02-08 03:53:00
11:53 PM,30.0,18.0,61,30.23,10.0,West,3.5,-,N/A,,Scattered Clouds,260,2014-02-08 04:53:00